Time;durP1;ratioP1;P1;durP2;ratioP2;P2;SDS_P1;SDS_P2;PMS_P1;PMS_P2;Temp;Humidity;BMP_temperature;BMP_pressure;BME280_temperature;BME280_humidity;BME280_pressure;Samples;Min_cycle;Max_cycle;Signal;HPM_P1;HPM_P2
2023/02/25 00:00:19;;;;;;;;;;;9.50;76.60;;;;;;5001839;28;94025;-37
2023/02/25 00:02:44;;;;;;;;;;;9.50;76.40;;;;;;5001308;28;94909;-38
2023/02/25 00:05:10;;;;;;;;;;;9.50;76.50;;;;;;5001728;28;92183;-37
2023/02/25 00:07:36;;;;;;;;;;;9.60;76.50;;;;;;5000870;28;94078;-37
2023/02/25 00:10:02;;;;;;;;;;;9.50;76.30;;;;;;5000909;28;94381;-37
2023/02/25 00:12:28;;;;;;;;;;;9.60;76.30;;;;;;5002007;28;91471;-37
2023/02/25 00:14:53;;;;;;;;;;;9.50;76.30;;;;;;5001266;28;92748;-37
2023/02/25 00:17:19;;;;;;;;;;;9.50;76.30;;;;;;5000713;28;94441;-37
2023/02/25 00:19:44;;;;;;;;;;;9.50;76.40;;;;;;5003840;28;93056;-37
2023/02/25 00:22:10;;;;;;;;;;;9.50;76.40;;;;;;5000474;28;94476;-37
2023/02/25 00:24:35;;;;;;;;;;;9.50;76.40;;;;;;5001159;28;92289;-37
2023/02/25 00:27:01;;;;;;;;;;;9.50;76.40;;;;;;5001068;28;93783;-37
2023/02/25 00:29:26;;;;;;;;;;;9.50;76.40;;;;;;5000595;28;94821;-37
2023/02/25 00:31:52;;;;;;;;;;;9.50;76.40;;;;;;5001064;28;91989;-37
2023/02/25 00:34:17;;;;;;;;;;;9.50;76.40;;;;;;5001285;28;93738;-37
2023/02/25 00:36:43;;;;;;;;;;;9.50;76.40;;;;;;5000862;28;92952;-37
2023/02/25 00:39:08;;;;;;;;;;;9.50;76.40;;;;;;5000244;28;92242;-37
2023/02/25 00:41:34;;;;;;;;;;;9.50;76.40;;;;;;5003646;28;93613;-37
2023/02/25 00:44:00;;;;;;;;;;;9.50;76.50;;;;;;5000361;28;93153;-37
2023/02/25 00:46:26;;;;;;;;;;;9.50;76.40;;;;;;5000561;28;95046;-37
2023/02/25 00:48:52;;;;;;;;;;;9.50;76.40;;;;;;5000463;28;94609;-38
2023/02/25 00:51:22;;;;;;;;;;;9.40;76.50;;;;;;5000851;28;92139;-38
2023/02/25 00:53:48;;;;;;;;;;;9.40;76.50;;;;;;5000860;28;93877;-37
2023/02/25 00:56:15;;;;;;;;;;;9.40;76.50;;;;;;5000181;28;94624;-38
2023/02/25 00:58:41;;;;;;;;;;;9.40;76.50;;;;;;5000732;28;92161;-37
2023/02/25 01:01:36;;;;;;;;;;;9.40;76.50;;;;;;5001039;28;93778;-37
2023/02/25 01:04:02;;;;;;;;;;;9.40;76.50;;;;;;4993702;28;94254;-38
2023/02/25 01:06:28;;;;;;;;;;;9.40;76.60;;;;;;5000083;28;94175;-37
2023/02/25 01:08:54;;;;;;;;;;;9.40;76.40;;;;;;4999523;28;95425;-37
2023/02/25 01:11:25;;;;;;;;;;;9.30;76.50;;;;;;5000550;28;92100;-37
2023/02/25 01:13:51;;;;;;;;;;;9.30;76.60;;;;;;5000413;28;93668;-37
2023/02/25 01:16:18;;;;;;;;;;;9.30;76.60;;;;;;5000139;28;94585;-37
2023/02/25 01:18:45;;;;;;;;;;;9.30;76.60;;;;;;5000201;28;92142;-37
2023/02/25 01:21:16;;;;;;;;;;;9.30;76.60;;;;;;5000070;28;94046;-37
2023/02/25 01:23:42;;;;;;;;;;;9.30;76.60;;;;;;4999796;28;94486;-37
2023/02/25 01:26:08;;;;;;;;;;;9.30;76.50;;;;;;5004039;28;91741;-38
2023/02/25 01:28:34;;;;;;;;;;;9.30;76.60;;;;;;4999677;28;94577;-38
2023/02/25 01:30:59;;;;;;;;;;;9.30;76.50;;;;;;5000061;28;92142;-38
2023/02/25 01:33:25;;;;;;;;;;;9.30;76.50;;;;;;4999554;28;94094;-38
2023/02/25 01:35:50;;;;;;;;;;;9.30;76.60;;;;;;4999956;28;93062;-37
2023/02/25 01:38:16;;;;;;;;;;;9.30;76.50;;;;;;4999990;28;92208;-37
2023/02/25 01:40:41;;;;;;;;;;;9.30;76.40;;;;;;5000052;28;93992;-37
2023/02/25 01:43:11;;;;;;;;;;;9.30;76.40;;;;;;4999612;28;94591;-37
2023/02/25 01:45:41;;;;;;;;;;;9.30;76.50;;;;;;5003072;28;92555;-37
2023/02/25 01:48:09;;;;;;;;;;;9.30;76.40;;;;;;4999417;28;93352;-38
2023/02/25 01:50:52;;;;;;;;;;;9.30;76.50;;;;;;4999250;28;91444;-38
2023/02/25 01:53:28;;;;;;;;;;;9.30;76.60;;;;;;4999926;28;92991;-37
2023/02/25 01:55:55;;;;;;;;;;;9.30;76.40;;;;;;4999468;28;94451;-38
2023/02/25 01:58:21;;;;;;;;;;;9.30;76.20;;;;;;4999297;28;93154;-38
2023/02/25 02:00:46;;;;;;;;;;;9.30;76.40;;;;;;5000054;28;92354;-37
2023/02/25 02:03:15;;;;;;;;;;;9.30;76.50;;;;;;4999248;28;94284;-37
2023/02/25 02:05:52;;;;;;;;;;;9.20;76.50;;;;;;4999326;28;92240;-38
2023/02/25 02:08:18;;;;;;;;;;;9.20;76.50;;;;;;5002658;28;92410;-38
2023/02/25 02:10:43;;;;;;;;;;;9.30;76.50;;;;;;4999401;28;92267;-38
2023/02/25 02:13:09;;;;;;;;;;;9.20;76.40;;;;;;4999700;28;92937;-37
2023/02/25 02:15:38;;;;;;;;;;;9.20;76.40;;;;;;4999967;28;92486;-37
2023/02/25 02:18:04;;;;;;;;;;;9.20;76.50;;;;;;4999676;28;92202;-37
2023/02/25 02:20:30;;;;;;;;;;;9.20;76.40;;;;;;4999160;28;93732;-37
2023/02/25 02:23:04;;;;;;;;;;;9.20;76.40;;;;;;4998544;28;94000;-38
2023/02/25 02:25:57;;;;;;;;;;;9.20;76.30;;;;;;4999366;28;92084;-38
2023/02/25 02:28:36;;;;;;;;;;;9.20;76.50;;;;;;4999533;28;94274;-38
2023/02/25 02:31:21;;;;;;;;;;;9.20;76.40;;;;;;5002276;28;92721;-37
2023/02/25 02:33:53;;;;;;;;;;;9.20;76.50;;;;;;4999139;28;94056;-38
2023/02/25 02:36:22;;;;;;;;;;;9.20;76.30;;;;;;4998808;28;94564;-38
2023/02/25 02:38:50;;;;;;;;;;;9.20;76.40;;;;;;4999264;28;92230;-38
2023/02/25 02:41:15;;;;;;;;;;;9.20;76.50;;;;;;4999684;28;92493;-38
2023/02/25 02:43:53;;;;;;;;;;;9.20;76.40;;;;;;4998593;28;94867;-38
2023/02/25 02:46:21;;;;;;;;;;;9.20;76.50;;;;;;4999029;28;92242;-38
2023/02/25 02:48:57;;;;;;;;;;;9.10;76.40;;;;;;4998595;28;93933;-38
2023/02/25 02:51:33;;;;;;;;;;;9.20;76.50;;;;;;4998478;28;94650;-37
2023/02/25 02:53:59;;;;;;;;;;;9.10;76.50;;;;;;5001986;28;92139;-38
2023/02/25 02:56:27;;;;;;;;;;;9.10;76.50;;;;;;4998533;28;94391;-38
2023/02/25 02:58:52;;;;;;;;;;;9.10;76.60;;;;;;4998799;28;92178;-37
2023/02/25 03:01:30;;;;;;;;;;;9.10;76.60;;;;;;5000472;28;93865;-37
2023/02/25 03:04:03;;;;;;;;;;;9.10;76.70;;;;;;5002159;28;94688;-37
2023/02/25 03:06:31;;;;;;;;;;;9.10;76.70;;;;;;5002722;28;91646;-38
2023/02/25 03:09:02;;;;;;;;;;;9.10;76.50;;;;;;5002697;28;92629;-38
2023/02/25 03:11:27;;;;;;;;;;;9.10;76.60;;;;;;5001684;28;93670;-38
2023/02/25 03:13:53;;;;;;;;;;;9.10;77.20;;;;;;5001872;28;93530;-38
2023/02/25 03:16:22;;;;;;;;;;;9.10;76.60;;;;;;5004796;28;95028;-38
2023/02/25 03:18:50;;;;;;;;;;;9.10;76.60;;;;;;5002370;28;92120;-37
2023/02/25 03:21:23;;;;;;;;;;;9.10;76.80;;;;;;5001922;28;94040;-37
2023/02/25 03:23:50;;;;;;;;;;;9.10;76.50;;;;;;5001633;28;94605;-38
2023/02/25 03:26:25;;;;;;;;;;;9.10;76.40;;;;;;5002112;28;92106;-37
2023/02/25 03:28:51;;;;;;;;;;;9.10;76.40;;;;;;5002147;28;93896;-38
2023/02/25 03:31:23;;;;;;;;;;;9.10;76.30;;;;;;5002045;28;93806;-37
2023/02/25 03:33:56;;;;;;;;;;;9.10;76.50;;;;;;5002094;28;92150;-37
2023/02/25 03:36:33;;;;;;;;;;;9.10;76.60;;;;;;5004508;28;93792;-38
2023/02/25 03:39:03;;;;;;;;;;;9.00;76.50;;;;;;5001477;28;93030;-38
2023/02/25 03:41:34;;;;;;;;;;;9.00;76.40;;;;;;5001956;28;94731;-36
2023/02/25 03:44:00;;;;;;;;;;;9.10;76.50;;;;;;5001551;28;94502;-37
2023/02/25 03:46:26;;;;;;;;;;;9.10;76.50;;;;;;5002019;28;92128;-38
2023/02/25 03:48:53;;;;;;;;;;;9.10;76.30;;;;;;5001842;28;93673;-38
2023/02/25 03:51:20;;;;;;;;;;;9.00;76.40;;;;;;5001244;28;94645;-37
2023/02/25 03:53:46;;;;;;;;;;;9.10;76.50;;;;;;5001766;28;92199;-38
2023/02/25 03:56:12;;;;;;;;;;;9.10;76.40;;;;;;5002459;28;92477;-38
2023/02/25 03:58:38;;;;;;;;;;;9.10;76.40;;;;;;5004148;28;94339;-38
2023/02/25 04:01:06;;;;;;;;;;;9.00;76.30;;;;;;5001587;28;93922;-37
2023/02/25 04:03:31;;;;;;;;;;;9.00;76.40;;;;;;5000545;28;95404;-38
2023/02/25 04:05:57;;;;;;;;;;;9.00;76.40;;;;;;5000770;28;92257;-38
2023/02/25 04:08:22;;;;;;;;;;;9.10;76.50;;;;;;5017158;28;94137;-38
2023/02/25 04:10:48;;;;;;;;;;;9.10;76.30;;;;;;5001359;28;93112;-38
2023/02/25 04:13:14;;;;;;;;;;;9.00;76.40;;;;;;5000427;28;92231;-38
2023/02/25 04:15:40;;;;;;;;;;;9.00;76.40;;;;;;5001547;28;92276;-37
2023/02/25 04:18:06;;;;;;;;;;;9.00;76.50;;;;;;5000890;28;94788;-37
2023/02/25 04:20:32;;;;;;;;;;;9.00;76.40;;;;;;5004551;28;92909;-38
2023/02/25 04:22:58;;;;;;;;;;;9.00;76.30;;;;;;5000623;28;94452;-37
2023/02/25 04:25:23;;;;;;;;;;;9.00;76.30;;;;;;5001719;28;93416;-37
2023/02/25 04:27:49;;;;;;;;;;;8.90;76.40;;;;;;5000623;28;94581;-38
2023/02/25 04:30:15;;;;;;;;;;;9.00;76.40;;;;;;5000644;28;94659;-38
2023/02/25 04:32:40;;;;;;;;;;;9.00;76.30;;;;;;5001040;28;92179;-38
2023/02/25 04:35:10;;;;;;;;;;;9.00;76.20;;;;;;5001086;28;93768;-38
2023/02/25 04:37:36;;;;;;;;;;;9.00;76.30;;;;;;5000438;28;94411;-38
2023/02/25 04:40:03;;;;;;;;;;;9.00;76.30;;;;;;5001262;28;92012;-37
2023/02/25 04:42:29;;;;;;;;;;;8.90;76.30;;;;;;5003582;28;93829;-38
2023/02/25 04:44:55;;;;;;;;;;;8.90;76.40;;;;;;5001439;28;91415;-38
2023/02/25 04:47:20;;;;;;;;;;;8.90;76.30;;;;;;5001071;28;92942;-37
2023/02/25 04:49:45;;;;;;;;;;;8.90;76.20;;;;;;5000022;28;94612;-37
2023/02/25 04:52:12;;;;;;;;;;;8.90;76.30;;;;;;5000393;28;93081;-38
2023/02/25 04:54:37;;;;;;;;;;;8.90;76.20;;;;;;5000840;28;94842;-38
2023/02/25 04:57:03;;;;;;;;;;;8.90;76.30;;;;;;5000356;28;95104;-37
2023/02/25 04:59:28;;;;;;;;;;;9.00;76.40;;;;;;5000775;28;92481;-38
2023/02/25 05:01:54;;;;;;;;;;;9.00;76.30;;;;;;5001007;28;92390;-37
2023/02/25 05:04:19;;;;;;;;;;;8.90;76.20;;;;;;5003350;28;94452;-37
2023/02/25 05:06:45;;;;;;;;;;;8.90;76.30;;;;;;4999799;28;94965;-37
2023/02/25 05:09:10;;;;;;;;;;;8.90;76.30;;;;;;5000603;28;93933;-37
2023/02/25 05:11:36;;;;;;;;;;;8.90;76.30;;;;;;5000657;28;92157;-37
2023/02/25 05:14:01;;;;;;;;;;;8.90;76.30;;;;;;5000542;28;94083;-37
2023/02/25 05:16:27;;;;;;;;;;;8.90;76.30;;;;;;4999353;28;95961;-37
2023/02/25 05:18:52;;;;;;;;;;;8.90;76.30;;;;;;5000494;28;92282;-38
2023/02/25 05:21:19;;;;;;;;;;;8.90;76.30;;;;;;5000071;28;93189;-38
2023/02/25 05:23:46;;;;;;;;;;;8.90;76.30;;;;;;4999424;28;94581;-37
2023/02/25 05:26:12;;;;;;;;;;;8.90;76.20;;;;;;5003655;28;92115;-38
2023/02/25 05:28:37;;;;;;;;;;;8.90;76.20;;;;;;5000295;28;92758;-38
2023/02/25 05:31:07;;;;;;;;;;;8.90;76.20;;;;;;5000310;28;92185;-37
2023/02/25 05:33:33;;;;;;;;;;;8.90;76.30;;;;;;5000664;28;92397;-37
2023/02/25 05:35:58;;;;;;;;;;;8.90;76.30;;;;;;4999591;28;94478;-37
2023/02/25 05:38:24;;;;;;;;;;;8.90;76.30;;;;;;5000097;28;91908;-37
2023/02/25 05:40:50;;;;;;;;;;;8.80;76.20;;;;;;4999307;28;94098;-37
2023/02/25 05:43:16;;;;;;;;;;;8.90;76.30;;;;;;5014896;28;96377;-37
2023/02/25 05:45:41;;;;;;;;;;;8.80;76.30;;;;;;5003101;28;92145;-37
2023/02/25 05:48:07;;;;;;;;;;;8.80;76.30;;;;;;4999471;28;94412;-37
2023/02/25 05:50:40;;;;;;;;;;;8.80;76.20;;;;;;5015310;28;92159;-37
2023/02/25 05:53:06;;;;;;;;;;;8.80;76.20;;;;;;5000147;28;93809;-37
2023/02/25 05:55:31;;;;;;;;;;;8.80;76.20;;;;;;4999694;28;93148;-38
2023/02/25 05:57:57;;;;;;;;;;;8.90;76.30;;;;;;5000281;28;91405;-37
2023/02/25 06:00:22;;;;;;;;;;;8.90;76.30;;;;;;4999970;28;93213;-37
2023/02/25 06:02:48;;;;;;;;;;;8.80;76.20;;;;;;4999121;28;94690;-37
2023/02/25 06:05:13;;;;;;;;;;;8.80;76.20;;;;;;4999233;28;93159;-38
2023/02/25 06:07:39;;;;;;;;;;;8.80;76.20;;;;;;5001910;28;94839;-37
2023/02/25 06:10:04;;;;;;;;;;;8.80;76.20;;;;;;4999942;28;92172;-37
2023/02/25 06:12:32;;;;;;;;;;;8.80;76.20;;;;;;4999808;28;94031;-37
2023/02/25 06:14:57;;;;;;;;;;;8.80;76.20;;;;;;4999092;28;94512;-37
2023/02/25 06:17:26;;;;;;;;;;;8.80;76.30;;;;;;4999372;28;92138;-37
2023/02/25 06:19:51;;;;;;;;;;;8.80;76.30;;;;;;4999105;28;93827;-37
2023/02/25 06:22:18;;;;;;;;;;;8.80;76.30;;;;;;4999344;28;93802;-37
2023/02/25 06:24:43;;;;;;;;;;;8.80;76.30;;;;;;4999659;28;92230;-37
2023/02/25 06:27:09;;;;;;;;;;;8.80;76.30;;;;;;4999441;28;94161;-37
2023/02/25 06:29:35;;;;;;;;;;;8.80;76.30;;;;;;5001396;28;95560;-37
2023/02/25 06:32:00;;;;;;;;;;;8.80;76.20;;;;;;4999323;28;94930;-38
2023/02/25 06:34:31;;;;;;;;;;;8.80;76.30;;;;;;4998687;28;94588;-37
2023/02/25 06:36:57;;;;;;;;;;;8.80;76.30;;;;;;4998602;28;91970;-38
2023/02/25 06:39:23;;;;;;;;;;;8.80;76.30;;;;;;4999470;28;92347;-37
2023/02/25 06:41:48;;;;;;;;;;;8.80;76.30;;;;;;4998810;28;94781;-37
2023/02/25 06:44:14;;;;;;;;;;;8.80;76.30;;;;;;4999183;28;92133;-38
2023/02/25 06:46:39;;;;;;;;;;;8.80;76.30;;;;;;4999834;28;92486;-37
2023/02/25 06:49:04;;;;;;;;;;;8.80;76.30;;;;;;4998541;28;94372;-37
2023/02/25 06:51:30;;;;;;;;;;;8.80;76.30;;;;;;5001875;28;92110;-38
2023/02/25 06:53:55;;;;;;;;;;;8.80;76.30;;;;;;4997690;28;95560;-38
2023/02/25 06:56:21;;;;;;;;;;;8.70;76.30;;;;;;4998798;28;92202;-37
2023/02/25 06:58:47;;;;;;;;;;;8.70;76.50;;;;;;4999410;28;92468;-37
2023/02/25 07:01:13;;;;;;;;;;;8.70;76.40;;;;;;4998726;28;93109;-37
2023/02/25 07:03:39;;;;;;;;;;;8.70;76.30;;;;;;4998507;28;92200;-37
2023/02/25 07:06:05;;;;;;;;;;;8.80;76.40;;;;;;4998119;28;93715;-38
2023/02/25 07:08:31;;;;;;;;;;;8.70;76.30;;;;;;4998549;28;93062;-37
2023/02/25 07:11:08;;;;;;;;;;;8.70;76.40;;;;;;4999553;28;91403;-38
2023/02/25 07:13:33;;;;;;;;;;;8.70;76.40;;;;;;5001754;28;91964;-37
2023/02/25 07:15:59;;;;;;;;;;;8.70;76.40;;;;;;4998471;28;92190;-37
2023/02/25 07:18:24;;;;;;;;;;;8.70;76.40;;;;;;4998127;28;94052;-38
2023/02/25 07:20:50;;;;;;;;;;;8.70;76.40;;;;;;4997878;28;94370;-38
2023/02/25 07:23:15;;;;;;;;;;;8.70;76.40;;;;;;4998666;28;92114;-37
2023/02/25 07:25:41;;;;;;;;;;;8.70;76.40;;;;;;4998604;28;93909;-37
2023/02/25 07:28:06;;;;;;;;;;;8.70;76.40;;;;;;4998143;28;94505;-37
2023/02/25 07:30:32;;;;;;;;;;;8.70;76.50;;;;;;4998832;28;92166;-38
2023/02/25 07:32:57;;;;;;;;;;;8.70;76.50;;;;;;4998447;28;93836;-38
2023/02/25 07:35:23;;;;;;;;;;;8.70;76.50;;;;;;5001475;28;93693;-37
2023/02/25 07:37:48;;;;;;;;;;;8.70;76.50;;;;;;4998497;28;92140;-38
2023/02/25 07:40:15;;;;;;;;;;;8.70;76.60;;;;;;4997896;28;94425;-38
2023/02/25 07:42:41;;;;;;;;;;;8.70;76.50;;;;;;4997674;28;93100;-38
2023/02/25 07:45:08;;;;;;;;;;;8.70;76.40;;;;;;4998687;28;92590;-38
2023/02/25 07:47:34;;;;;;;;;;;8.70;76.50;;;;;;4999544;28;94298;-38
2023/02/25 07:50:00;;;;;;;;;;;8.70;76.40;;;;;;5001916;28;92323;-37
2023/02/25 07:52:25;;;;;;;;;;;8.80;76.40;;;;;;5001929;28;92939;-38
2023/02/25 07:54:50;;;;;;;;;;;8.70;76.40;;;;;;5004334;28;94665;-37
2023/02/25 07:57:16;;;;;;;;;;;8.80;76.50;;;;;;5001856;28;92719;-38
2023/02/25 07:59:41;;;;;;;;;;;8.80;76.40;;;;;;5001625;28;93794;-37
2023/02/25 08:02:09;;;;;;;;;;;8.70;76.40;;;;;;5001394;28;92212;-38
2023/02/25 08:04:35;;;;;;;;;;;8.80;76.50;;;;;;5001559;28;94364;-38
2023/02/25 08:07:01;;;;;;;;;;;8.70;76.50;;;;;;4999951;28;95177;-38
2023/02/25 08:09:26;;;;;;;;;;;8.70;76.50;;;;;;5001758;28;92196;-37
2023/02/25 08:11:52;;;;;;;;;;;8.80;76.50;;;;;;5001512;28;93979;-37
2023/02/25 08:14:17;;;;;;;;;;;8.70;76.50;;;;;;5000932;28;94760;-38
2023/02/25 08:16:43;;;;;;;;;;;8.80;76.60;;;;;;5004640;28;92202;-37
2023/02/25 08:19:08;;;;;;;;;;;8.80;76.60;;;;;;5000736;28;94804;-38
2023/02/25 08:21:35;;;;;;;;;;;8.80;76.60;;;;;;5001015;28;92166;-37
2023/02/25 08:24:01;;;;;;;;;;;8.80;76.60;;;;;;5001688;28;93921;-37
2023/02/25 08:26:26;;;;;;;;;;;8.80;76.60;;;;;;5000909;28;92653;-38
2023/02/25 08:28:52;;;;;;;;;;;8.80;76.60;;;;;;5001627;28;92165;-37
2023/02/25 08:31:18;;;;;;;;;;;8.80;76.60;;;;;;5000264;28;93878;-38
2023/02/25 08:33:48;;;;;;;;;;;8.80;76.60;;;;;;5000968;28;93073;-37
2023/02/25 08:36:15;;;;;;;;;;;8.80;76.70;;;;;;5001146;28;92174;-38
2023/02/25 08:38:41;;;;;;;;;;;8.80;76.70;;;;;;5003824;28;93926;-37
2023/02/25 08:41:07;;;;;;;;;;;8.80;76.70;;;;;;5001108;28;92166;-37
2023/02/25 08:43:33;;;;;;;;;;;8.80;76.70;;;;;;5001215;28;92401;-37
2023/02/25 08:45:58;;;;;;;;;;;8.80;76.80;;;;;;5000389;28;94752;-37
2023/02/25 08:48:24;;;;;;;;;;;8.80;76.80;;;;;;5001217;28;91437;-38
2023/02/25 08:50:49;;;;;;;;;;;8.80;76.80;;;;;;5000900;28;93186;-37
2023/02/25 08:53:15;;;;;;;;;;;8.80;76.80;;;;;;5000225;28;94666;-37
2023/02/25 08:55:40;;;;;;;;;;;8.80;76.80;;;;;;5000510;28;93218;-38
2023/02/25 08:58:06;;;;;;;;;;;8.80;76.90;;;;;;5000487;28;94961;-38
2023/02/25 09:00:32;;;;;;;;;;;8.80;76.90;;;;;;5003317;28;94590;-37
2023/02/25 09:02:57;;;;;;;;;;;8.80;76.80;;;;;;5001021;28;92486;-37
2023/02/25 09:05:23;;;;;;;;;;;8.80;76.80;;;;;;4999993;28;94383;-38
2023/02/25 09:07:49;;;;;;;;;;;8.80;76.90;;;;;;5000478;28;92174;-37
2023/02/25 09:10:15;;;;;;;;;;;8.80;76.80;;;;;;5000703;28;92813;-37
2023/02/25 09:12:41;;;;;;;;;;;8.70;76.90;;;;;;5000911;28;92236;-37
2023/02/25 09:15:08;;;;;;;;;;;8.80;76.90;;;;;;5000163;28;92157;-37
2023/02/25 09:17:33;;;;;;;;;;;8.80;76.90;;;;;;5000484;28;94039;-37
2023/02/25 09:20:00;;;;;;;;;;;8.80;76.70;;;;;;4999176;28;95614;-38
2023/02/25 09:22:26;;;;;;;;;;;8.80;76.70;;;;;;5003229;28;92206;-37
2023/02/25 09:24:51;;;;;;;;;;;8.70;76.80;;;;;;4999814;28;94579;-38
2023/02/25 09:27:17;;;;;;;;;;;8.80;76.80;;;;;;5000553;28;92054;-38
2023/02/25 09:29:42;;;;;;;;;;;8.80;76.70;;;;;;5000209;28;93779;-38
2023/02/25 09:32:14;;;;;;;;;;;8.80;76.70;;;;;;4999627;28;94344;-38
2023/02/25 09:34:40;;;;;;;;;;;8.80;76.80;;;;;;5000267;28;92044;-38
2023/02/25 09:37:05;;;;;;;;;;;8.80;76.80;;;;;;5000768;28;94214;-38
2023/02/25 09:39:31;;;;;;;;;;;8.80;76.90;;;;;;4999922;28;93099;-38
2023/02/25 09:41:59;;;;;;;;;;;8.80;76.90;;;;;;4999972;28;92282;-37
2023/02/25 09:44:32;;;;;;;;;;;8.80;76.80;;;;;;5002000;28;93664;-37
2023/02/25 09:47:01;;;;;;;;;;;8.80;76.90;;;;;;4999896;28;92120;-38
2023/02/25 09:49:30;;;;;;;;;;;8.80;76.90;;;;;;5000033;28;92380;-38
2023/02/25 09:52:21;;;;;;;;;;;8.80;76.90;;;;;;4999546;28;94640;-38
2023/02/25 09:55:05;;;;;;;;;;;8.80;76.90;;;;;;4994389;28;92190;-37
2023/02/25 09:57:35;;;;;;;;;;;8.80;76.90;;;;;;4999991;28;93608;-38
2023/02/25 10:00:08;;;;;;;;;;;8.80;76.90;;;;;;4999169;28;93375;-37
2023/02/25 10:02:56;;;;;;;;;;;8.80;76.90;;;;;;5000313;28;91334;-38
2023/02/25 10:05:37;;;;;;;;;;;8.80;76.90;;;;;;4996092;28;92987;-37
2023/02/25 10:08:03;;;;;;;;;;;8.80;76.90;;;;;;4999495;28;92090;-38
2023/02/25 10:10:50;;;;;;;;;;;8.80;76.80;;;;;;4998175;28;93765;-38
2023/02/25 10:13:22;;;;;;;;;;;8.80;76.80;;;;;;4999097;28;94248;-38
2023/02/25 10:16:17;;;;;;;;;;;8.80;76.80;;;;;;4999365;28;92095;-38
2023/02/25 10:18:43;;;;;;;;;;;8.80;76.90;;;;;;4961925;28;93611;-38
2023/02/25 10:21:12;;;;;;;;;;;8.80;76.90;;;;;;4998979;28;94563;-38
2023/02/25 10:24:00;;;;;;;;;;;8.80;76.90;;;;;;4999517;28;92108;-38
2023/02/25 10:26:28;;;;;;;;;;;8.80;76.90;;;;;;4999605;28;92449;-37
2023/02/25 10:28:57;;;;;;;;;;;8.80;77.00;;;;;;5002568;28;93656;-37
2023/02/25 10:31:22;;;;;;;;;;;8.80;76.90;;;;;;4999405;28;93044;-37
2023/02/25 10:33:50;;;;;;;;;;;8.80;77.00;;;;;;4998712;28;94376;-38
2023/02/25 10:36:15;;;;;;;;;;;8.80;77.00;;;;;;4998650;28;93106;-37
2023/02/25 10:38:44;;;;;;;;;;;8.80;77.00;;;;;;4999528;28;93265;-38
2023/02/25 10:41:09;;;;;;;;;;;8.80;77.00;;;;;;4998563;28;94502;-38
2023/02/25 10:43:35;;;;;;;;;;;8.80;77.00;;;;;;4999313;28;92207;-38
2023/02/25 10:46:08;;;;;;;;;;;8.80;77.00;;;;;;4999132;28;93880;-37
2023/02/25 10:48:34;;;;;;;;;;;8.80;77.00;;;;;;4998610;28;94438;-37
2023/02/25 10:51:11;;;;;;;;;;;8.80;76.90;;;;;;5002146;28;92148;-38
2023/02/25 10:54:00;;;;;;;;;;;8.80;76.90;;;;;;4998910;28;93859;-38
2023/02/25 10:56:37;;;;;;;;;;;8.90;76.90;;;;;;4993307;28;92281;-38
2023/02/25 10:59:04;;;;;;;;;;;8.80;77.00;;;;;;4999189;28;92004;-38
2023/02/25 11:01:41;;;;;;;;;;;8.80;77.00;;;;;;4998224;28;93682;-38
2023/02/25 11:04:26;;;;;;;;;;;8.80;77.00;;;;;;4998786;28;92166;-37
2023/02/25 11:06:52;;;;;;;;;;;8.80;77.00;;;;;;4998285;28;92992;-37
2023/02/25 11:09:17;;;;;;;;;;;8.90;77.00;;;;;;4998404;28;93906;-37
2023/02/25 11:11:54;;;;;;;;;;;8.90;77.00;;;;;;4998741;28;92151;-37
2023/02/25 11:17:11;;;;;;;;;;;8.90;77.00;;;;;;4999123;28;92541;-38
2023/02/25 11:19:56;;;;;;;;;;;8.90;77.10;;;;;;4999176;28;93939;-37
2023/02/25 11:22:27;;;;;;;;;;;8.90;77.10;;;;;;4999322;28;93080;-38
2023/02/25 11:24:58;;;;;;;;;;;8.90;77.10;;;;;;5002107;28;92179;-37
2023/02/25 11:27:37;;;;;;;;;;;8.90;77.10;;;;;;5001672;28;93742;-38
2023/02/25 11:30:14;;;;;;;;;;;8.90;77.20;;;;;;5001598;28;94340;-38
2023/02/25 11:32:43;;;;;;;;;;;8.90;77.20;;;;;;5002219;28;92032;-37
2023/02/25 11:35:16;;;;;;;;;;;8.90;77.20;;;;;;5002195;28;93951;-37
2023/02/25 11:37:42;;;;;;;;;;;8.90;77.20;;;;;;5004392;28;94587;-37
2023/02/25 11:40:23;;;;;;;;;;;8.90;77.20;;;;;;5001938;28;94274;-38
2023/02/25 11:43:04;;;;;;;;;;;8.90;77.20;;;;;;5001440;28;94718;-38
2023/02/25 11:45:31;;;;;;;;;;;8.90;77.10;;;;;;5002324;28;91910;-38
2023/02/25 11:47:57;;;;;;;;;;;8.90;77.10;;;;;;5001564;28;93001;-37
2023/02/25 11:50:40;;;;;;;;;;;8.90;77.00;;;;;;5001422;28;93951;-37
2023/02/25 11:53:06;;;;;;;;;;;9.00;77.10;;;;;;5001383;28;93086;-38
2023/02/25 11:55:35;;;;;;;;;;;9.00;77.10;;;;;;5001862;28;93903;-38
2023/02/25 11:58:10;;;;;;;;;;;9.00;77.10;;;;;;5001383;28;94567;-37
2023/02/25 12:00:50;;;;;;;;;;;9.00;77.10;;;;;;5004564;28;92116;-38
2023/02/25 12:03:33;;;;;;;;;;;9.00;77.70;;;;;;5001075;28;94467;-37
2023/02/25 12:06:17;;;;;;;;;;;9.00;77.20;;;;;;5001264;28;92262;-37
2023/02/25 12:08:55;;;;;;;;;;;9.00;77.20;;;;;;5001438;28;93757;-38
2023/02/25 12:11:24;;;;;;;;;;;9.00;77.30;;;;;;5001570;28;93580;-37
2023/02/25 12:13:58;;;;;;;;;;;9.00;77.20;;;;;;5001611;28;92006;-37
2023/02/25 12:17:03;;;;;;;;;;;9.00;77.20;;;;;;5001819;28;92026;-38
2023/02/25 12:19:31;;;;;;;;;;;9.00;77.10;;;;;;4958211;28;95312;-37
2023/02/25 12:22:13;;;;;;;;;;;9.00;77.10;;;;;;4962620;28;92189;-37
2023/02/25 12:25:01;;;;;;;;;;;9.00;77.20;;;;;;4983614;28;94576;-38
2023/02/25 12:27:26;;;;;;;;;;;9.00;77.20;;;;;;5001113;28;92149;-37
2023/02/25 12:29:58;;;;;;;;;;;9.00;77.20;;;;;;5001195;28;93625;-38
2023/02/25 12:32:30;;;;;;;;;;;9.10;77.20;;;;;;5000975;28;93350;-38
2023/02/25 12:35:34;;;;;;;;;;;9.00;77.20;;;;;;5000426;28;92020;-38
2023/02/25 12:38:25;;;;;;;;;;;9.00;77.20;;;;;;4959564;28;93854;-37
2023/02/25 12:40:59;;;;;;;;;;;9.00;77.30;;;;;;4958941;28;94900;-38
2023/02/25 12:43:28;;;;;;;;;;;9.00;77.30;;;;;;4987158;28;92197;-38
2023/02/25 12:46:00;;;;;;;;;;;9.10;77.30;;;;;;5002968;28;93927;-37
2023/02/25 12:48:34;;;;;;;;;;;9.10;77.30;;;;;;5000585;28;92142;-38
2023/02/25 12:51:00;;;;;;;;;;;9.00;77.30;;;;;;5001090;28;93584;-37
2023/02/25 12:53:40;;;;;;;;;;;9.10;77.40;;;;;;5000515;28;94568;-38
2023/02/25 12:56:06;;;;;;;;;;;9.10;77.30;;;;;;5000965;28;92124;-38
2023/02/25 12:58:34;;;;;;;;;;;9.10;77.20;;;;;;4999550;28;94062;-37
2023/02/25 13:01:09;;;;;;;;;;;9.10;77.80;;;;;;4999800;28;94402;-37
2023/02/25 13:03:40;;;;;;;;;;;9.20;77.30;;;;;;5001555;28;91329;-37
2023/02/25 13:06:26;;;;;;;;;;;9.10;77.30;;;;;;5000221;28;93279;-37
2023/02/25 13:09:10;;;;;;;;;;;9.10;77.20;;;;;;4995131;28;94520;-38
2023/02/25 13:11:35;;;;;;;;;;;9.10;77.30;;;;;;4999843;28;93729;-38
2023/02/25 13:14:16;;;;;;;;;;;9.10;77.30;;;;;;4999908;28;94244;-38
2023/02/25 13:16:42;;;;;;;;;;;9.10;77.30;;;;;;5000845;28;92186;-37
2023/02/25 13:19:13;;;;;;;;;;;9.20;77.20;;;;;;5000697;28;93914;-37
2023/02/25 13:21:50;;;;;;;;;;;9.10;77.30;;;;;;4999631;28;94557;-38
2023/02/25 13:24:16;;;;;;;;;;;9.20;77.30;;;;;;5000302;28;92144;-38
2023/02/25 13:26:47;;;;;;;;;;;9.20;77.30;;;;;;5000408;28;92549;-38
2023/02/25 13:29:13;;;;;;;;;;;9.20;77.20;;;;;;5000631;28;92367;-38
2023/02/25 13:31:42;;;;;;;;;;;9.20;77.20;;;;;;5003788;28;92164;-37
2023/02/25 13:34:16;;;;;;;;;;;9.20;77.20;;;;;;4999895;28;93528;-38
2023/02/25 13:36:59;;;;;;;;;;;9.20;77.20;;;;;;4999214;28;93141;-38
2023/02/25 13:39:37;;;;;;;;;;;9.20;77.20;;;;;;5000060;28;94912;-38
2023/02/25 13:42:11;;;;;;;;;;;9.20;77.20;;;;;;4999703;28;94440;-38
2023/02/25 13:45:00;;;;;;;;;;;9.20;77.20;;;;;;5000034;28;92172;-38
2023/02/25 13:47:41;;;;;;;;;;;9.20;77.20;;;;;;5000377;28;92466;-37
2023/02/25 13:50:25;;;;;;;;;;;9.20;77.20;;;;;;4999419;28;94909;-38
2023/02/25 13:52:56;;;;;;;;;;;9.20;77.20;;;;;;4999977;28;92025;-37
2023/02/25 13:55:22;;;;;;;;;;;9.20;77.50;;;;;;5003084;28;92387;-38
2023/02/25 13:58:04;;;;;;;;;;;9.30;77.30;;;;;;5000035;28;92228;-37
2023/02/25 14:00:30;;;;;;;;;;;9.20;77.80;;;;;;4999955;28;93858;-37
2023/02/25 14:02:55;;;;;;;;;;;9.20;77.30;;;;;;4998485;28;96228;-37
2023/02/25 14:05:26;;;;;;;;;;;9.30;77.30;;;;;;4999600;28;91953;-37
2023/02/25 14:08:27;;;;;;;;;;;9.30;77.30;;;;;;4999596;28;93748;-37
2023/02/25 14:10:56;;;;;;;;;;;9.30;77.40;;;;;;4957671;28;93146;-37
2023/02/25 14:13:24;;;;;;;;;;;9.30;77.40;;;;;;4991620;28;92312;-38
2023/02/25 14:15:56;;;;;;;;;;;9.30;77.40;;;;;;5002278;28;92445;-37
2023/02/25 14:18:43;;;;;;;;;;;9.30;77.30;;;;;;4999497;28;92185;-38
2023/02/25 14:21:27;;;;;;;;;;;9.30;77.40;;;;;;4999767;28;93969;-38
2023/02/25 14:24:04;;;;;;;;;;;9.30;77.30;;;;;;4999137;28;93088;-37
2023/02/25 14:26:34;;;;;;;;;;;9.30;77.30;;;;;;4999616;28;92037;-37
2023/02/25 14:29:18;;;;;;;;;;;9.30;77.30;;;;;;4998432;28;93867;-37
2023/02/25 14:31:50;;;;;;;;;;;9.40;77.30;;;;;;4998826;28;94625;-37
2023/02/25 14:34:43;;;;;;;;;;;9.40;77.30;;;;;;4999419;28;92080;-38
2023/02/25 14:37:30;;;;;;;;;;;9.30;77.30;;;;;;4997475;28;94134;-37
2023/02/25 14:40:14;;;;;;;;;;;9.40;77.30;;;;;;5001977;28;94231;-37
2023/02/25 14:42:46;;;;;;;;;;;9.40;77.30;;;;;;4999534;28;92328;-37
2023/02/25 14:45:11;;;;;;;;;;;9.40;77.30;;;;;;4999193;28;93189;-37
2023/02/25 14:47:40;;;;;;;;;;;9.40;77.30;;;;;;4999860;28;91438;-37